Hovedside
METAR-TAF:

METAR-TAF

Lufthavner :

Volgograd, Russland

breddegrad: 48-47N, lengdegrad: 044-22E, høyde over havet: 145 m

Gjeldene værobservasjon

Denne rapporten ble laget for 11 minutter siden, klokken 23:30 UTC
Vind 4 kt fra Vest-sørvest
Temperatur 10°C
Luftfuktighet 50%
Trykk 1021 hPa
Sikt 10 km eller mer
ingen skyer under 1500 m og ingen bygeskyer

METAR: URWW 222330Z 24002MPS CAVOK 10/00 Q1021 R24/010070 NOSIG

Tid: 03:41 (23:41 UTC)

Varsel

Denne rapporten ble laget for 44 minutter siden, klokken 22:57 UTC
Varsel gyldig fra 23. klokken 00 UTC til 23. klokken 09 UTC
Vind 6 kt fra Vest-sørvest med vindkast opp mot 19 kt
Sikt 10 km eller mer
Spredte skyer i en høyde av 4000 ft
Midlertidig
fra 23. klokken 00 UTC til 23. klokken 09 UTC
Vind 6 kt fra Vest med vindkast opp mot 19 kt

TAF: URWW 222257Z 2300/2309 25003G10MPS 9999 SCT040 TEMPO 2300/2309 28003G10MPS

Værobservasjoner og værvarsel for over 4000 flyplasser (METAR- og TAF-rapporter).

Tilgjengelige stasjoner er representert av de røde og gule prikkene på kartet.

Hold musepekeren over prikken for å se navnet på stasjonen.

Klikk så for å se værobservasjoner og -varsler.

For å forandre kartet kan du klikke på den grønne knappen med svart kryss for å zoome inn, på den grønne knappen med strek for å zoome ut, eller på de grønne pilene for å se tilstøtende kart.


METAR-TAF: